Time;durP1;ratioP1;P1;durP2;ratioP2;P2;SDS_P1;SDS_P2;PMS_P1;PMS_P2;Temp;Humidity;BMP_temperature;BMP_pressure;BME280_temperature;BME280_humidity;BME280_pressure;Samples;Min_cycle;Max_cycle;Signal;HPM_P1;HPM_P2
2024/01/07 00:00:38;;;;;;;3.45;3.05;;;;;;;21.88;38.03;101579.34;4997860;28;115488;-77
2024/01/07 00:03:04;;;;;;;4.10;2.30;;;;;;;21.89;38.16;101582.84;4993759;28;97457;-78
2024/01/07 00:05:29;;;;;;;3.17;1.90;;;;;;;21.89;37.87;101585.50;4992186;28;97182;-77
2024/01/07 00:07:54;;;;;;;2.72;1.63;;;;;;;21.88;38.00;101579.34;4974269;28;110067;-77
2024/01/07 00:10:20;;;;;;;3.53;1.77;;;;;;;21.89;38.06;101585.50;4980419;28;125673;-77
2024/01/07 00:12:45;;;;;;;3.30;1.92;;;;;;;21.88;38.19;101586.44;4985184;28;97705;-78
2024/01/07 00:15:10;;;;;;;2.97;1.90;;;;;;;21.88;38.04;101584.66;4991632;28;96807;-78
2024/01/07 00:17:36;;;;;;;3.20;2.00;;;;;;;21.88;38.25;101591.75;4984056;28;111510;-77
2024/01/07 00:20:01;;;;;;;2.90;1.73;;;;;;;21.88;37.91;101597.91;4985743;28;127535;-77
2024/01/07 00:22:26;;;;;;;3.92;1.95;;;;;;;21.89;38.18;101593.47;4971333;28;118632;-77
2024/01/07 00:24:52;;;;;;;3.08;2.17;;;;;;;21.87;38.06;101593.50;4972563;28;111646;-78
2024/01/07 00:27:17;;;;;;;2.97;1.80;;;;;;;21.88;38.28;101595.25;5006290;27;96637;-78
2024/01/07 00:29:43;;;;;;;3.22;1.75;;;;;;;21.87;38.09;101601.47;5003992;27;126716;-77
2024/01/07 00:32:08;;;;;;;3.22;1.85;;;;;;;21.87;38.18;101601.47;4970624;28;127550;-78
2024/01/07 00:34:33;;;;;;;3.85;2.33;;;;;;;21.87;38.19;101609.44;4982828;28;96816;-77
2024/01/07 00:36:59;;;;;;;3.03;1.70;;;;;;;21.87;38.37;101606.78;4972107;28;96799;-78
2024/01/07 00:39:24;;;;;;;3.22;1.92;;;;;;;21.88;38.30;101615.66;4973172;28;125962;-78
2024/01/07 00:41:49;;;;;;;2.90;1.83;;;;;;;21.87;38.30;101612.09;4989335;28;100313;-77
2024/01/07 00:44:15;;;;;;;2.25;1.95;;;;;;;21.86;37.98;101616.53;4972300;28;97166;-78
2024/01/07 00:46:40;;;;;;;2.63;1.38;;;;;;;21.88;37.81;101623.63;5002927;28;98164;-77
2024/01/07 00:49:05;;;;;;;3.42;2.45;;;;;;;21.85;38.31;101619.22;4992768;28;127626;-77
2024/01/07 00:51:31;;;;;;;2.70;2.05;;;;;;;21.86;38.06;101626.31;4983428;28;124680;-78
2024/01/07 00:53:56;;;;;;;2.67;1.42;;;;;;;21.85;38.11;101628.09;4973830;28;96954;-77
2024/01/07 00:56:25;;;;;;;3.05;2.08;;;;;;;21.85;38.13;101629.84;4988853;28;103124;-77
2024/01/07 00:58:51;;;;;;;2.95;1.80;;;;;;;21.85;38.17;101636.06;4989410;28;99545;-77
2024/01/07 01:01:17;;;;;;;2.97;2.15;;;;;;;21.86;38.26;101631.63;4991760;28;99601;-77
2024/01/07 01:03:42;;;;;;;2.60;1.60;;;;;;;21.84;38.10;101636.94;4986336;28;110605;-78
2024/01/07 01:06:07;;;;;;;3.17;1.60;;;;;;;21.85;38.18;101633.41;4970525;28;96924;-78
2024/01/07 01:08:33;;;;;;;3.05;1.85;;;;;;;21.85;38.04;101637.81;4971971;28;123579;-78
2024/01/07 01:10:58;;;;;;;3.20;2.03;;;;;;;21.85;38.13;101645.78;4975773;28;98518;-78
2024/01/07 01:13:23;;;;;;;3.28;1.63;;;;;;;21.84;38.40;101641.41;5002794;28;112218;-78
2024/01/07 01:15:49;;;;;;;2.25;1.33;;;;;;;21.82;38.33;101638.78;4975291;28;96774;-78
2024/01/07 01:18:14;;;;;;;3.22;2.00;;;;;;;21.83;38.48;101653.78;4994349;28;98679;-77
2024/01/07 01:20:39;;;;;;;3.00;2.15;;;;;;;21.83;38.00;101643.16;4984911;28;124589;-78
2024/01/07 01:23:05;;;;;;;3.10;1.85;;;;;;;21.82;38.32;101652.06;4988881;28;97532;-77
2024/01/07 01:25:30;;;;;;;3.03;1.67;;;;;;;21.83;38.27;101655.56;5000334;28;112883;-77
2024/01/07 01:27:56;;;;;;;3.90;1.73;;;;;;;21.83;38.05;101661.75;4978549;28;97608;-77
2024/01/07 01:30:21;;;;;;;3.33;2.22;;;;;;;21.83;38.32;101658.22;4968530;28;100388;-78
2024/01/07 01:32:47;;;;;;;2.97;1.85;;;;;;;21.82;38.00;101662.66;4990423;28;99405;-78
2024/01/07 01:35:13;;;;;;;2.97;1.73;;;;;;;21.82;38.28;101662.66;4990347;28;97055;-78
2024/01/07 01:37:38;;;;;;;3.33;1.60;;;;;;;21.83;38.25;101666.19;4975958;28;99790;-78
2024/01/07 01:40:04;;;;;;;3.75;1.92;;;;;;;21.82;38.22;101673.28;4991026;28;99940;-78
2024/01/07 01:42:29;;;;;;;3.05;1.75;;;;;;;21.82;38.32;101675.94;4992384;28;97050;-77
2024/01/07 01:44:59;;;;;;;3.13;1.92;;;;;;;21.82;38.12;101683.06;4992135;28;96967;-78
2024/01/07 01:47:24;;;;;;;4.00;1.70;;;;;;;21.83;38.18;101687.44;5006184;28;99275;-77
2024/01/07 01:49:50;;;;;;;2.60;1.80;;;;;;;21.82;38.25;101683.06;5008052;28;97434;-78
2024/01/07 01:52:15;;;;;;;3.05;1.98;;;;;;;21.81;38.07;101686.59;4993821;28;96656;-78
2024/01/07 01:54:41;;;;;;;3.50;1.92;;;;;;;21.81;38.04;101684.81;4989979;28;96768;-77
2024/01/07 01:57:13;;;;;;;3.72;2.42;;;;;;;21.81;38.29;101686.59;4991793;28;99548;-77
2024/01/07 01:59:39;;;;;;;4.00;2.08;;;;;;;21.81;38.08;101694.56;5001890;28;97445;-77
2024/01/07 02:02:04;;;;;;;2.72;1.73;;;;;;;21.81;37.90;101697.22;4992164;28;96667;-77
2024/01/07 02:04:30;;;;;;;2.88;2.05;;;;;;;21.81;38.28;101699.88;4984244;28;96767;-77
2024/01/07 02:06:55;;;;;;;3.20;2.22;;;;;;;21.79;38.35;101691.94;4975796;28;98117;-78
2024/01/07 02:09:21;;;;;;;4.18;1.90;;;;;;;21.78;38.20;101690.22;4983574;28;99820;-77
2024/01/07 02:12:05;;;;;;;3.03;1.70;;;;;;;21.78;38.16;101695.53;4972109;28;114260;-77
2024/01/07 02:14:31;;;;;;;3.92;2.13;;;;;;;21.79;38.05;101693.72;4975929;28;96931;-78
2024/01/07 02:16:56;;;;;;;3.58;1.77;;;;;;;21.78;38.14;101697.28;4975502;28;99435;-77
2024/01/07 02:19:22;;;;;;;3.60;2.45;;;;;;;21.78;38.22;101697.28;4975626;28;96802;-78
2024/01/07 02:21:49;;;;;;;3.40;2.40;;;;;;;21.77;37.94;101696.41;4985275;28;113494;-78
2024/01/07 02:24:18;;;;;;;3.28;1.92;;;;;;;21.79;37.85;101699.03;4996683;28;96969;-77
2024/01/07 02:26:43;;;;;;;;;;;;;;;21.72;38.14;101700.94;4969152;28;99346;-77
2024/01/07 02:29:08;;;;;;;3.67;1.80;;;;;;;21.73;38.30;101707.13;5001445;28;97352;-77
2024/01/07 02:31:34;;;;;;;3.80;2.03;;;;;;;21.75;38.10;101700.03;4992599;28;96910;-77
2024/01/07 02:33:59;;;;;;;3.65;2.17;;;;;;;21.76;38.29;101704.41;5000079;28;96827;-77
2024/01/07 02:36:25;;;;;;;3.50;2.20;;;;;;;21.76;38.15;101709.72;4973647;28;124225;-77
2024/01/07 02:38:50;;;;;;;4.63;1.90;;;;;;;21.76;38.25;101709.72;4974752;28;124575;-77
2024/01/07 02:41:15;;;;;;;3.40;2.10;;;;;;;21.75;38.25;101710.63;4981913;28;96939;-78
2024/01/07 02:43:41;;;;;;;3.67;2.47;;;;;;;21.75;38.29;101718.59;4983928;28;105038;-77
2024/01/07 02:46:07;;;;;;;3.08;1.90;;;;;;;21.75;38.25;101723.91;4972630;28;116973;-77
2024/01/07 02:48:32;;;;;;;3.22;2.13;;;;;;;21.75;38.05;101735.41;4988580;28;96627;-77
2024/01/07 02:50:58;;;;;;;3.58;2.38;;;;;;;21.74;37.99;101731.00;4969752;28;96875;-78
2024/01/07 02:53:24;;;;;;;4.05;2.63;;;;;;;21.75;38.13;101729.22;4982722;28;96842;-77
2024/01/07 02:55:49;;;;;;;3.47;2.58;;;;;;;21.74;38.28;101731.00;4987836;28;97301;-77
2024/01/07 02:58:14;;;;;;;3.80;2.50;;;;;;;21.74;38.11;101731.00;4987991;28;98777;-77
2024/01/07 03:00:40;;;;;;;3.50;2.40;;;;;;;21.73;37.90;101728.34;4989504;28;97331;-77
2024/01/07 03:03:06;;;;;;;3.33;1.83;;;;;;;21.74;37.90;101728.34;4988152;28;96853;-77
2024/01/07 03:05:32;;;;;;;3.38;2.25;;;;;;;21.73;38.14;101742.53;4986683;28;105413;-77
2024/01/07 03:07:59;;;;;;;3.75;2.55;;;;;;;21.73;37.99;101737.22;4985443;28;98312;-77
2024/01/07 03:10:25;;;;;;;3.42;1.88;;;;;;;21.75;37.92;101743.38;4974884;28;96691;-77
2024/01/07 03:12:50;;;;;;;3.72;1.95;;;;;;;21.73;38.01;101742.53;4983694;28;97863;-78
2024/01/07 03:15:15;;;;;;;3.35;1.98;;;;;;;21.74;37.97;101749.56;5000970;28;97738;-77
2024/01/07 03:17:41;;;;;;;3.30;1.65;;;;;;;21.73;38.19;101746.94;4982733;28;126711;-77
2024/01/07 03:20:07;;;;;;;3.30;2.10;;;;;;;21.72;38.14;101743.41;4983426;28;96677;-77
2024/01/07 03:22:32;;;;;;;3.22;1.88;;;;;;;21.72;37.94;101750.53;4968511;28;98449;-77
2024/01/07 03:24:57;;;;;;;3.28;1.95;;;;;;;21.73;38.16;101746.94;4972819;28;125616;-78
2024/01/07 03:27:23;;;;;;;3.78;2.50;;;;;;;21.71;37.76;101749.66;4988977;28;101286;-77
2024/01/07 03:29:48;;;;;;;4.38;2.67;;;;;;;21.71;37.80;101747.00;4982686;28;110878;-78
2024/01/07 03:32:13;;;;;;;4.25;1.95;;;;;;;21.72;38.05;101745.22;4981009;28;111183;-78
2024/01/07 03:34:40;;;;;;;2.78;1.40;;;;;;;21.73;38.21;101754.91;4984363;28;97094;-77
2024/01/07 03:37:05;;;;;;;3.15;2.22;;;;;;;21.72;37.80;101756.69;4986642;28;97671;-78
2024/01/07 03:39:34;;;;;;;3.60;2.13;;;;;;;21.71;37.80;101754.97;4993030;28;96818;-77
2024/01/07 03:41:59;;;;;;;2.85;1.67;;;;;;;21.71;37.76;101754.97;4986878;28;96675;-77
2024/01/07 03:44:24;;;;;;;3.20;1.85;;;;;;;21.71;37.88;101760.28;4975324;28;97416;-77
2024/01/07 03:46:50;;;;;;;3.30;2.38;;;;;;;21.70;38.13;101758.50;4987871;28;108578;-77
2024/01/07 03:49:17;;;;;;;3.92;2.00;;;;;;;21.70;38.05;101765.63;5012508;27;97120;-77
2024/01/07 03:51:43;;;;;;;4.55;2.80;;;;;;;21.70;37.92;101762.97;5007417;27;96879;-77
2024/01/07 03:54:08;;;;;;;3.35;1.92;;;;;;;21.71;38.07;101767.34;5003944;28;99667;-77
2024/01/07 03:56:34;;;;;;;3.08;1.80;;;;;;;21.70;37.97;101766.47;4976068;28;97704;-78
2024/01/07 03:58:59;;;;;;;3.10;1.75;;;;;;;21.70;38.08;101771.78;4980962;28;98944;-78
2024/01/07 04:01:25;;;;;;;4.28;2.03;;;;;;;21.71;37.82;101770.91;4982696;28;97238;-78
2024/01/07 04:03:50;;;;;;;3.20;1.95;;;;;;;21.70;38.08;101777.09;4977705;28;97453;-78
2024/01/07 04:06:15;;;;;;;3.45;2.15;;;;;;;21.70;37.71;101773.56;4986629;28;110745;-78
2024/01/07 04:08:41;;;;;;;3.45;1.70;;;;;;;21.68;37.88;101774.47;4992530;28;98398;-77
2024/01/07 04:11:06;;;;;;;3.75;1.92;;;;;;;21.70;37.72;101778.88;4958054;28;102153;-78
2024/01/07 04:13:32;;;;;;;3.45;2.00;;;;;;;21.70;37.88;101787.72;4987295;28;107492;-78
2024/01/07 04:15:57;;;;;;;3.78;2.33;;;;;;;21.68;37.81;101774.47;4992096;28;96768;-77
2024/01/07 04:18:22;;;;;;;3.10;1.77;;;;;;;21.68;38.12;101782.44;4990745;28;98532;-77
2024/01/07 04:20:48;;;;;;;3.35;1.75;;;;;;;21.68;37.81;101792.19;4986617;28;97246;-77
2024/01/07 04:23:13;;;;;;;3.00;2.00;;;;;;;21.68;37.66;101792.19;4988625;28;96937;-77
2024/01/07 04:25:40;;;;;;;2.70;1.65;;;;;;;21.68;38.06;101794.84;4989303;28;99712;-77
2024/01/07 04:28:06;;;;;;;3.03;1.73;;;;;;;21.68;37.73;101795.72;4987670;28;96643;-78
2024/01/07 04:30:31;;;;;;;3.20;1.90;;;;;;;21.68;37.73;101797.50;4978974;28;97006;-77
2024/01/07 04:32:57;;;;;;;2.92;1.67;;;;;;;21.67;37.99;101799.28;4985344;28;96906;-78
2024/01/07 04:35:22;;;;;;;3.58;1.83;;;;;;;21.67;37.97;101806.34;4988698;28;96776;-78
2024/01/07 04:37:48;;;;;;;3.00;1.55;;;;;;;21.66;37.62;101808.13;4976548;28;97802;-78
2024/01/07 04:40:13;;;;;;;3.90;1.73;;;;;;;21.67;38.01;101811.66;4982712;28;96861;-78
2024/01/07 04:42:39;;;;;;;3.28;2.33;;;;;;;21.66;37.94;101816.09;4971941;28;96849;-78
2024/01/07 04:45:05;;;;;;;2.97;1.77;;;;;;;21.66;38.02;101816.09;4976103;28;96745;-78
2024/01/07 04:47:33;;;;;;;4.72;2.13;;;;;;;21.67;37.90;101816.97;4984927;28;97136;-77
2024/01/07 04:49:59;;;;;;;2.63;1.73;;;;;;;21.66;37.78;101820.56;5006512;28;96946;-77
2024/01/07 04:52:25;;;;;;;2.33;1.55;;;;;;;21.66;37.65;101828.50;4973751;28;98301;-77
2024/01/07 04:54:52;;;;;;;2.80;1.65;;;;;;;21.66;37.64;101833.81;4985971;28;97832;-77
2024/01/07 04:57:18;;;;;;;3.42;1.77;;;;;;;21.66;37.70;101832.03;4983183;28;96676;-77
2024/01/07 04:59:43;;;;;;;3.05;1.73;;;;;;;21.66;37.75;101834.69;4988844;28;96838;-77
2024/01/07 05:02:08;;;;;;;3.70;2.38;;;;;;;21.66;37.85;101833.81;4981946;28;125475;-77
2024/01/07 05:04:35;;;;;;;2.70;1.63;;;;;;;21.65;37.45;101835.59;4980549;28;105795;-77
2024/01/07 05:07:01;;;;;;;2.70;1.90;;;;;;;21.65;37.76;101840.03;4986314;28;96845;-77
2024/01/07 05:09:26;;;;;;;3.47;2.33;;;;;;;21.64;37.72;101839.16;4983244;28;110474;-77
2024/01/07 05:11:51;;;;;;;3.45;2.28;;;;;;;21.64;37.68;101840.91;4989160;28;96793;-77
2024/01/07 05:14:17;;;;;;;2.80;2.10;;;;;;;21.65;37.69;101840.03;4989802;28;97770;-78
2024/01/07 05:16:42;;;;;;;2.45;1.52;;;;;;;21.64;37.95;101846.22;5011196;27;96798;-78
2024/01/07 05:19:08;;;;;;;2.92;1.50;;;;;;;21.63;37.73;101849.81;4983027;28;109500;-78
2024/01/07 05:21:33;;;;;;;2.65;1.63;;;;;;;21.64;37.65;101854.19;4987965;28;106144;-77
2024/01/07 05:23:58;;;;;;;3.35;2.25;;;;;;;21.63;37.64;101855.13;4990998;28;125414;-78
2024/01/07 05:26:23;;;;;;;3.10;2.30;;;;;;;21.62;37.86;101866.63;5008301;27;110878;-78
2024/01/07 05:28:49;;;;;;;3.30;2.50;;;;;;;21.63;37.73;101865.72;4991652;28;96761;-78
2024/01/07 05:31:18;;;;;;;2.83;2.13;;;;;;;21.62;37.52;101867.53;4982895;28;123639;-77
2024/01/07 05:33:44;;;;;;;3.42;1.52;;;;;;;21.63;37.92;101879.00;4980887;28;96729;-77
2024/01/07 05:36:13;;;;;;;2.47;1.60;;;;;;;21.63;37.45;101884.31;4977166;28;97221;-78
2024/01/07 05:38:38;;;;;;;3.00;1.52;;;;;;;21.63;37.79;101881.66;4999940;28;97384;-77
2024/01/07 05:41:04;;;;;;;3.20;1.63;;;;;;;21.61;37.84;101889.66;4965866;28;117493;-77
2024/01/07 05:43:30;;;;;;;2.88;1.70;;;;;;;21.61;37.58;101888.78;4974592;28;98528;-77
2024/01/07 05:45:55;;;;;;;3.10;1.58;;;;;;;21.60;37.51;101890.53;4979227;28;105762;-77
2024/01/07 05:48:24;;;;;;;3.03;2.38;;;;;;;21.62;37.78;101891.41;4984924;28;97696;-77
2024/01/07 05:50:49;;;;;;;2.85;1.75;;;;;;;21.61;37.86;101896.75;4974548;28;113302;-78
2024/01/07 05:53:17;;;;;;;2.95;1.52;;;;;;;21.60;37.71;101895.84;4979097;28;97161;-77
2024/01/07 05:55:42;;;;;;;2.53;1.38;;;;;;;21.62;37.69;101893.16;4987325;28;97351;-78
2024/01/07 05:58:07;;;;;;;3.00;2.15;;;;;;;21.61;37.59;101894.09;5005090;28;110866;-78
2024/01/07 06:00:33;;;;;;;3.33;2.22;;;;;;;21.61;37.77;101899.41;5006185;27;98494;-77
2024/01/07 06:02:59;;;;;;;2.40;1.48;;;;;;;21.60;37.56;101906.47;5015211;27;124893;-77
2024/01/07 06:05:24;;;;;;;2.47;1.30;;;;;;;21.61;37.78;101907.38;4981637;28;97075;-78
2024/01/07 06:07:49;;;;;;;2.22;1.35;;;;;;;21.61;37.66;101917.97;4972730;28;112509;-77
2024/01/07 06:10:15;;;;;;;2.80;1.77;;;;;;;21.60;37.65;101910.91;4973112;28;127168;-78
2024/01/07 06:12:40;;;;;;;3.03;1.75;;;;;;;21.60;37.56;101917.09;4973742;28;125176;-77
2024/01/07 06:15:06;;;;;;;2.60;1.30;;;;;;;21.59;37.73;101925.97;4974830;28;96718;-77
2024/01/07 06:17:31;;;;;;;2.45;1.48;;;;;;;21.59;37.80;101927.75;4977217;28;97455;-77
2024/01/07 06:19:57;;;;;;;2.50;1.60;;;;;;;21.59;38.05;101928.63;4989658;28;98343;-77
2024/01/07 06:22:23;;;;;;;2.95;1.50;;;;;;;21.58;37.59;101931.31;4985393;28;97374;-77
2024/01/07 06:24:48;;;;;;;2.70;1.55;;;;;;;21.59;37.46;101938.38;4991991;28;97782;-77
2024/01/07 06:27:13;;;;;;;2.80;1.63;;;;;;;21.57;37.46;101943.72;4986863;28;112977;-77
2024/01/07 06:29:39;;;;;;;2.90;2.10;;;;;;;21.57;37.49;101949.00;5012108;27;120212;-77
2024/01/07 06:32:04;;;;;;;3.15;1.52;;;;;;;21.57;37.61;101951.66;4986676;28;124930;-77
2024/01/07 06:34:30;;;;;;;2.72;1.52;;;;;;;21.56;37.76;101954.34;4983632;28;97002;-77
2024/01/07 06:36:55;;;;;;;2.38;1.48;;;;;;;21.56;37.65;101960.53;4987347;28;98552;-78
2024/01/07 06:39:21;;;;;;;2.60;1.80;;;;;;;21.56;37.69;101957.00;4976797;28;120847;-78
2024/01/07 06:41:46;;;;;;;3.08;1.73;;;;;;;21.55;37.48;101969.41;4988995;28;97246;-77
2024/01/07 06:44:12;;;;;;;3.42;1.42;;;;;;;21.56;37.60;101972.94;5004960;28;112658;-77
2024/01/07 06:46:37;;;;;;;3.42;2.25;;;;;;;21.55;37.36;101972.06;4989199;28;97069;-77
2024/01/07 06:49:02;;;;;;;2.63;1.98;;;;;;;21.55;37.75;101976.47;4978986;28;126913;-77
2024/01/07 06:51:28;;;;;;;2.75;1.38;;;;;;;21.55;37.34;101981.78;4991850;28;104873;-77
2024/01/07 06:53:53;;;;;;;2.58;1.80;;;;;;;21.55;37.53;101984.44;4985060;28;96753;-77
2024/01/07 06:56:19;;;;;;;2.13;1.23;;;;;;;21.54;37.60;101980.03;4983538;28;111468;-77
2024/01/07 06:58:45;;;;;;;2.25;1.40;;;;;;;21.53;37.31;101981.78;4991440;28;99131;-77
2024/01/07 07:01:11;;;;;;;2.33;1.40;;;;;;;21.54;37.61;101986.22;4990522;28;97447;-77
2024/01/07 07:03:36;;;;;;;2.25;1.65;;;;;;;21.54;37.38;101998.63;4989531;28;96673;-77
2024/01/07 07:06:02;;;;;;;2.72;1.90;;;;;;;21.54;37.49;102001.28;4988393;28;98161;-77
2024/01/07 07:08:27;;;;;;;3.08;1.55;;;;;;;21.54;37.53;102001.28;4983653;28;99589;-77
2024/01/07 07:10:53;;;;;;;2.97;1.50;;;;;;;21.53;37.67;102004.81;4989437;28;123511;-78
2024/01/07 07:13:18;;;;;;;2.30;1.33;;;;;;;21.53;37.56;102015.44;4983400;28;99126;-78
2024/01/07 07:15:43;;;;;;;2.55;1.33;;;;;;;21.52;37.55;102011.91;4991135;28;113430;-78
2024/01/07 07:18:09;;;;;;;2.20;1.65;;;;;;;21.53;37.42;102020.75;4985305;28;116693;-78
2024/01/07 07:20:34;;;;;;;3.70;1.95;;;;;;;21.53;37.69;102026.06;4979166;28;126558;-78
2024/01/07 07:22:59;;;;;;;2.72;2.10;;;;;;;21.53;37.73;102023.41;5006187;27;97223;-77
2024/01/07 07:25:25;;;;;;;2.90;1.45;;;;;;;21.52;37.70;102034.94;4975632;28;96803;-77
2024/01/07 07:27:50;;;;;;;2.70;1.52;;;;;;;21.51;37.31;102034.03;4990637;28;116213;-77
2024/01/07 07:30:16;;;;;;;3.13;2.05;;;;;;;21.52;37.51;102034.94;4981508;28;102745;-77
2024/01/07 07:32:41;;;;;;;2.85;1.42;;;;;;;21.52;37.29;102046.41;4964699;28;96819;-77
2024/01/07 07:35:07;;;;;;;2.70;1.45;;;;;;;21.53;37.56;102041.97;4978609;28;100067;-77
2024/01/07 07:37:33;;;;;;;2.78;1.70;;;;;;;21.52;37.45;102042.91;5009199;28;99866;-77
2024/01/07 07:39:58;;;;;;;2.63;1.55;;;;;;;21.52;37.49;102049.09;4986112;28;97314;-77
2024/01/07 07:42:23;;;;;;;2.30;1.40;;;;;;;21.51;37.51;102059.72;4983488;28;97534;-77
2024/01/07 07:44:49;;;;;;;2.35;1.58;;;;;;;21.51;37.23;102054.41;4986002;28;96934;-77
2024/01/07 07:47:14;;;;;;;2.50;1.73;;;;;;;21.52;37.34;102066.78;5006509;27;102968;-77
2024/01/07 07:49:40;;;;;;;3.35;1.33;;;;;;;21.50;37.31;102069.47;4981307;28;125739;-77
2024/01/07 07:52:07;;;;;;;3.53;1.58;;;;;;;21.52;37.38;102069.44;4974401;28;97391;-77
2024/01/07 07:54:33;;;;;;;2.40;1.55;;;;;;;21.51;37.39;102073.00;4971189;28;101686;-77
2024/01/07 07:56:58;;;;;;;2.60;1.27;;;;;;;21.50;37.19;102074.78;4977235;28;127542;-77
2024/01/07 07:59:23;;;;;;;2.35;1.40;;;;;;;21.51;37.31;102081.81;4978203;28;126409;-77
2024/01/07 08:01:49;;;;;;;2.40;1.67;;;;;;;21.50;37.35;102093.34;5007144;27;111283;-77
2024/01/07 08:04:15;;;;;;;2.95;1.42;;;;;;;21.49;37.55;102089.78;4975747;28;96799;-77
2024/01/07 08:06:42;;;;;;;2.47;1.63;;;;;;;21.51;37.37;102091.56;4970775;28;126809;-77
2024/01/07 08:09:08;;;;;;;3.25;2.03;;;;;;;21.50;37.57;102088.03;4979912;28;97243;-77
2024/01/07 08:11:34;;;;;;;2.90;1.55;;;;;;;21.49;37.37;102092.44;4987069;28;96781;-77
2024/01/07 08:14:01;;;;;;;2.78;1.40;;;;;;;21.48;37.59;102088.06;4979253;28;96736;-77
2024/01/07 08:16:26;;;;;;;3.22;1.67;;;;;;;21.48;37.52;102093.38;5003975;27;97817;-77
2024/01/07 08:18:52;;;;;;;2.20;1.10;;;;;;;21.49;37.46;102099.53;4987496;28;99382;-77
2024/01/07 08:21:17;;;;;;;2.40;1.13;;;;;;;21.49;37.59;102107.50;4972399;28;96836;-77
2024/01/07 08:23:43;;;;;;;2.67;1.42;;;;;;;21.47;37.26;102110.19;4978126;28;96782;-77
2024/01/07 08:26:08;;;;;;;2.50;1.40;;;;;;;21.47;37.46;102104.00;4988510;28;97227;-77
2024/01/07 08:28:34;;;;;;;2.95;1.25;;;;;;;21.47;37.03;102117.28;4977819;28;97520;-77
2024/01/07 08:30:59;;;;;;;3.13;1.60;;;;;;;21.47;37.40;102120.81;5003330;27;111227;-77
2024/01/07 08:33:25;;;;;;;4.15;1.55;;;;;;;21.46;37.33;102116.41;4980279;28;111767;-78
2024/01/07 08:35:50;;;;;;;6.90;1.83;;;;;;;21.46;37.22;102120.81;5010366;27;98144;-77
2024/01/07 08:38:15;;;;;;;2.92;1.90;;;;;;;21.46;37.08;102127.03;4978847;28;97399;-77
2024/01/07 08:40:41;;;;;;;2.45;1.45;;;;;;;21.45;37.02;102127.91;5007101;28;96796;-77
2024/01/07 08:43:06;;;;;;;2.28;1.30;;;;;;;21.44;37.39;102123.47;4988793;28;111832;-77
2024/01/07 08:45:31;;;;;;;3.28;1.83;;;;;;;21.45;37.44;102130.56;4991781;28;127038;-77
2024/01/07 08:47:57;;;;;;;3.08;1.90;;;;;;;21.46;37.01;102142.03;4987924;28;104834;-77
2024/01/07 08:50:22;;;;;;;2.70;1.30;;;;;;;21.44;37.07;102136.75;4989824;28;97476;-77
2024/01/07 08:52:47;;;;;;;2.33;1.30;;;;;;;21.45;37.13;102146.50;4992399;28;112582;-77
2024/01/07 08:55:13;;;;;;;2.58;1.33;;;;;;;21.43;37.32;102137.63;4992322;28;115756;-77
2024/01/07 08:57:38;;;;;;;2.78;1.45;;;;;;;21.43;36.96;102148.25;4984590;28;97734;-77
2024/01/07 09:00:06;;;;;;;2.55;1.33;;;;;;;21.43;36.88;102160.66;4975756;28;96656;-77
2024/01/07 09:02:32;;;;;;;2.35;1.25;;;;;;;21.44;37.25;102157.09;4975335;28;96863;-77
2024/01/07 09:04:58;;;;;;;2.38;1.40;;;;;;;21.43;37.19;102158.88;5006649;27;98791;-77
2024/01/07 09:07:23;;;;;;;3.42;1.90;;;;;;;21.43;37.28;102164.19;5018263;28;115225;-77
2024/01/07 09:09:49;;;;;;;2.92;2.00;;;;;;;21.43;37.32;102172.13;4989282;28;112081;-77
2024/01/07 09:12:14;;;;;;;2.58;1.13;;;;;;;21.42;37.26;102166.84;5002301;28;96952;-77
2024/01/07 09:14:40;;;;;;;2.72;1.25;;;;;;;21.43;36.97;102180.09;4981064;28;97492;-77
2024/01/07 09:17:05;;;;;;;2.78;1.70;;;;;;;21.43;36.96;102190.72;4986995;28;97222;-77
2024/01/07 09:19:30;;;;;;;2.70;1.50;;;;;;;21.41;37.20;102197.81;5000831;28;97266;-77
2024/01/07 09:21:56;;;;;;;2.78;1.50;;;;;;;21.43;37.10;102195.16;5000799;28;110661;-77
2024/01/07 09:24:21;;;;;;;3.15;2.10;;;;;;;21.42;37.02;102209.31;4976546;28;98070;-77
2024/01/07 09:26:46;;;;;;;4.38;2.08;;;;;;;21.42;37.17;102202.22;4982687;28;126531;-76
2024/01/07 09:29:12;;;;;;;2.90;2.22;;;;;;;21.41;36.90;102213.75;5005853;27;110838;-76
2024/01/07 09:31:37;;;;;;;2.17;1.23;;;;;;;21.41;36.96;102204.91;4974198;28;111742;-76
2024/01/07 09:34:04;;;;;;;2.47;1.95;;;;;;;21.41;37.13;102208.44;5008136;28;99607;-75
2024/01/07 09:36:29;;;;;;;2.60;2.00;;;;;;;21.41;36.86;102211.09;4980476;28;100018;-76
2024/01/07 09:38:54;;;;;;;2.60;1.52;;;;;;;21.40;36.74;102213.75;4987989;28;115586;-76
2024/01/07 09:41:20;;;;;;;2.80;1.38;;;;;;;21.40;37.25;102221.72;4984611;28;97447;-75
2024/01/07 09:43:45;;;;;;;2.35;1.60;;;;;;;21.41;36.99;102224.38;4973702;28;114646;-75
2024/01/07 09:46:11;;;;;;;3.25;1.42;;;;;;;21.39;36.84;102220.84;4973775;28;127055;-76
2024/01/07 09:48:36;;;;;;;2.40;1.80;;;;;;;21.40;36.82;102222.59;4974564;28;96677;-76
2024/01/07 09:51:04;;;;;;;2.97;1.45;;;;;;;21.41;36.79;102236.78;4977781;28;108407;-75
2024/01/07 09:53:35;;;;;;;3.30;1.42;;;;;;;21.40;37.01;102241.19;4998258;28;100206;-76
2024/01/07 09:56:13;;;;;;;3.15;2.28;;;;;;;21.38;37.23;102240.31;4988637;28;98024;-75
2024/01/07 09:58:42;;;;;;;2.40;1.52;;;;;;;21.39;36.82;102247.41;4990829;28;96985;-75
2024/01/07 10:01:08;;;;;;;3.20;1.40;;;;;;;21.39;36.96;102246.50;5006371;27;97419;-77
2024/01/07 10:03:33;;;;;;;2.80;1.50;;;;;;;21.39;36.89;102249.16;4979463;28;97113;-77
2024/01/07 10:05:58;;;;;;;2.45;1.20;;;;;;;21.40;36.58;102256.22;4987084;28;97439;-77
2024/01/07 10:08:24;;;;;;;2.70;1.45;;;;;;;21.38;36.78;102255.38;4981469;28;111691;-77
2024/01/07 10:10:49;;;;;;;2.22;1.38;;;;;;;21.38;36.70;102256.25;4988765;28;96929;-77
2024/01/07 10:13:14;;;;;;;3.88;1.92;;;;;;;21.39;36.61;102258.00;4986367;28;96746;-77
2024/01/07 10:15:40;;;;;;;2.20;1.77;;;;;;;21.38;37.07;102256.25;4984871;28;128788;-77
2024/01/07 10:18:07;;;;;;;2.58;1.42;;;;;;;21.38;36.97;102258.03;4956312;28;112322;-77
2024/01/07 10:20:34;;;;;;;3.17;1.60;;;;;;;21.38;36.92;102261.56;5002973;28;97100;-77
2024/01/07 10:23:00;;;;;;;3.70;2.20;;;;;;;21.37;36.96;102259.81;5006841;28;99920;-77
2024/01/07 10:25:25;;;;;;;2.47;1.60;;;;;;;21.38;36.52;102260.69;4992134;28;97039;-77
2024/01/07 10:27:51;;;;;;;3.08;1.70;;;;;;;21.37;36.86;102265.13;4971411;28;101492;-76
2024/01/07 10:30:17;;;;;;;2.50;1.85;;;;;;;21.37;36.99;102264.22;4997213;28;97199;-77
2024/01/07 10:32:43;;;;;;;3.85;1.83;;;;;;;21.37;36.93;102274.84;4973391;28;96762;-76
2024/01/07 10:35:12;;;;;;;2.80;1.40;;;;;;;21.37;36.52;102275.75;5005447;28;100105;-77
2024/01/07 10:37:38;;;;;;;2.58;1.23;;;;;;;21.37;36.95;102267.78;4984867;28;96697;-77
2024/01/07 10:40:03;;;;;;;3.45;2.03;;;;;;;21.37;36.93;102278.38;4986634;28;97312;-77
2024/01/07 10:42:33;;;;;;;2.72;1.48;;;;;;;21.37;36.62;102272.19;4978204;28;100166;-77
2024/01/07 10:45:02;;;;;;;2.70;2.03;;;;;;;21.36;36.63;102273.97;4992691;28;96713;-77
2024/01/07 10:47:31;;;;;;;3.03;1.80;;;;;;;21.36;36.82;102268.66;4973802;28;96881;-77
2024/01/07 10:50:01;;;;;;;;;;;;;;;21.30;37.04;102272.25;5019308;28;96910;-77
2024/01/07 10:52:27;;;;;;;3.05;1.35;;;;;;;21.33;36.88;102262.50;4972824;28;97549;-77
2024/01/07 10:54:56;;;;;;;3.22;1.52;;;;;;;21.34;36.87;102270.44;4973574;28;97956;-76
2024/01/07 10:57:24;;;;;;;;;;;;;;;21.28;37.06;102274.06;4974515;28;96744;-77
2024/01/07 10:59:51;;;;;;;2.58;1.25;;;;;;;21.31;36.86;102270.47;4982443;28;97361;-77
2024/01/07 11:02:17;;;;;;;2.25;1.25;;;;;;;21.32;36.92;102274.91;4990027;28;97683;-77
2024/01/07 11:04:50;;;;;;;2.47;1.80;;;;;;;21.32;36.90;102274.91;4983884;28;98373;-77
2024/01/07 11:07:37;;;;;;;2.78;1.55;;;;;;;21.33;36.71;102286.38;4982901;28;96761;-77
2024/01/07 11:10:18;;;;;;;2.53;1.20;;;;;;;21.31;36.53;102283.75;5013033;27;97249;-77
2024/01/07 11:12:43;;;;;;;3.15;1.60;;;;;;;21.31;36.76;102286.41;4986198;28;97206;-77
2024/01/07 11:15:09;;;;;;;2.67;1.80;;;;;;;21.32;36.67;102296.13;4985566;28;97949;-77
2024/01/07 11:17:37;;;;;;;2.38;1.75;;;;;;;21.32;36.64;102290.81;4981839;28;97418;-77